createdAt,value
2023-03-26T00:02:13.925Z,85380.81
2023-03-26T00:04:40.064Z,85382.47
2023-03-26T00:07:06.168Z,85377.97
2023-03-26T00:09:32.258Z,85390.03
2023-03-26T00:11:58.386Z,85366.34
2023-03-26T00:14:24.472Z,85350.03
2023-03-26T00:16:50.620Z,85336.53
2023-03-26T00:19:16.732Z,85327.75
2023-03-26T00:21:42.856Z,85332.53
2023-03-26T00:24:08.945Z,85325.13
2023-03-26T00:26:35.082Z,85339.34
2023-03-26T00:29:01.197Z,85304.91
2023-03-26T00:31:27.302Z,85310.84
2023-03-26T00:33:53.412Z,85304.91
2023-03-26T00:36:19.529Z,85306.06
2023-03-26T00:38:45.651Z,85297.28
2023-03-26T00:41:11.729Z,85290.63
2023-03-26T00:43:37.839Z,85300.88
2023-03-26T00:46:04.018Z,85318.09
2023-03-26T00:48:44.105Z,85328.28
2023-03-26T00:51:11.479Z,85319.25
2023-03-26T00:53:37.578Z,85323.25
2023-03-26T00:56:03.687Z,85334.38
2023-03-26T00:58:29.766Z,85358.09
2023-03-26T01:00:55.875Z,85345.50
2023-03-26T01:03:28.032Z,85349.22
2023-03-26T01:05:54.709Z,85344.50
2023-03-26T01:08:20.934Z,85364.69
2023-03-26T01:10:47.016Z,85369.84
2023-03-26T01:13:13.099Z,85367.28
2023-03-26T01:15:39.218Z,85374.38
2023-03-26T01:18:05.364Z,85375.56
2023-03-26T01:20:31.463Z,85362.97
2023-03-26T01:22:57.580Z,85369.56
2023-03-26T01:25:23.694Z,85374.03
2023-03-26T01:27:49.808Z,85384.28
2023-03-26T01:30:15.940Z,85382.63
2023-03-26T01:32:42.252Z,85369.03
2023-03-26T01:35:08.442Z,85383.06
2023-03-26T01:37:34.560Z,85370.75
2023-03-26T01:40:00.670Z,85371.66
2023-03-26T01:42:26.792Z,85359.34
2023-03-26T01:44:52.922Z,85381.25
2023-03-26T01:47:19.009Z,85363.31
2023-03-26T01:49:45.114Z,85366.94
2023-03-26T01:52:11.194Z,85348.66
2023-03-26T01:54:37.315Z,85354.09
2023-03-26T01:57:03.488Z,85345.78
2023-03-26T01:59:29.634Z,85347.44
2023-03-26T02:01:55.875Z,85347.66
2023-03-26T02:04:22.035Z,85336.75
2023-03-26T02:06:48.147Z,85324.41
2023-03-26T02:09:14.254Z,85300.50
2023-03-26T02:11:40.354Z,85304.75
2023-03-26T02:14:06.457Z,85298.13
2023-03-26T02:16:32.619Z,85286.34
2023-03-26T02:18:58.801Z,85256.00
2023-03-26T02:21:24.883Z,85255.44
2023-03-26T02:23:51.108Z,85257.84
2023-03-26T02:26:17.204Z,85248.19
2023-03-26T02:28:43.300Z,85242.34
2023-03-26T02:31:09.425Z,85254.88
2023-03-26T02:33:35.536Z,85245.81
2023-03-26T02:36:01.833Z,85261.53
2023-03-26T02:38:28.166Z,85266.44
2023-03-26T02:40:54.251Z,85268.06
2023-03-26T02:43:20.343Z,85258.38
2023-03-26T02:45:46.502Z,85257.56
2023-03-26T02:48:12.597Z,85256.97
2023-03-26T02:50:38.713Z,85250.31
2023-03-26T02:53:04.812Z,85259.63
2023-03-26T02:55:30.909Z,85249.84
2023-03-26T02:57:57.015Z,85268.78
2023-03-26T03:00:23.152Z,85268.56
2023-03-26T03:02:49.337Z,85251.19
2023-03-26T03:05:15.511Z,85245.66
2023-03-26T03:07:41.638Z,85270.53
2023-03-26T03:10:07.757Z,85251.28
2023-03-26T03:12:33.874Z,85232.81
2023-03-26T03:14:59.961Z,85256.09
2023-03-26T03:17:26.058Z,85249.19
2023-03-26T03:19:52.185Z,85233.88
2023-03-26T03:22:18.297Z,85256.00
2023-03-26T03:24:44.423Z,85220.03
2023-03-26T03:27:10.541Z,85215.72
2023-03-26T03:29:36.630Z,85246.34
2023-03-26T03:32:02.775Z,85224.59
2023-03-26T03:34:28.886Z,85227.47
2023-03-26T03:36:54.982Z,85222.06
2023-03-26T03:39:21.070Z,85218.63
2023-03-26T03:41:47.184Z,85218.75
2023-03-26T03:44:13.280Z,85203.19
2023-03-26T03:46:39.396Z,85196.88
2023-03-26T03:49:05.522Z,85183.59
2023-03-26T03:51:31.635Z,85170.34
2023-03-26T03:53:57.730Z,85165.41
2023-03-26T03:56:23.842Z,85173.91
2023-03-26T03:58:49.928Z,85158.47
2023-03-26T04:01:16.044Z,85139.38
2023-03-26T04:03:42.386Z,85150.59
2023-03-26T04:06:08.655Z,85122.16
2023-03-26T04:08:34.805Z,85132.16
2023-03-26T04:11:00.967Z,85129.31
2023-03-26T04:13:27.054Z,85085.63
2023-03-26T04:15:53.372Z,85111.50
2023-03-26T04:18:19.570Z,85128.59
2023-03-26T04:20:45.689Z,85138.88
2023-03-26T04:23:11.814Z,85155.50
2023-03-26T04:25:37.923Z,85155.09
2023-03-26T04:28:04.047Z,85161.91
2023-03-26T04:30:30.267Z,85168.22
2023-03-26T04:32:56.403Z,85151.47
2023-03-26T04:35:22.538Z,85122.94
2023-03-26T04:37:48.657Z,85113.25
2023-03-26T04:40:14.787Z,85106.66
2023-03-26T04:42:40.900Z,85109.59
2023-03-26T04:45:07.017Z,85091.16
2023-03-26T04:47:33.146Z,85089.03
2023-03-26T04:49:59.318Z,85084.63
2023-03-26T04:52:25.427Z,85081.28
2023-03-26T04:54:51.509Z,85089.91
2023-03-26T04:57:17.635Z,85079.78
2023-03-26T04:59:43.783Z,85066.38
2023-03-26T05:02:09.894Z,85071.06
2023-03-26T05:04:36.105Z,85064.03
2023-03-26T05:07:02.285Z,85038.47
2023-03-26T05:09:28.383Z,85045.16
2023-03-26T05:11:54.499Z,85045.94
2023-03-26T05:14:20.589Z,85009.34
2023-03-26T05:16:46.713Z,85017.44
2023-03-26T05:19:12.858Z,85017.13
2023-03-26T05:21:38.945Z,85024.72
2023-03-26T05:24:05.029Z,85025.44
2023-03-26T05:26:31.150Z,85022.03
2023-03-26T05:28:57.233Z,85035.31
2023-03-26T05:31:23.354Z,85057.50
2023-03-26T05:33:49.465Z,85066.22
2023-03-26T05:36:15.627Z,85068.63
2023-03-26T05:38:41.777Z,85078.25
2023-03-26T05:41:07.893Z,85091.97
2023-03-26T05:43:34.019Z,85086.72
2023-03-26T05:46:00.273Z,85101.88
2023-03-26T05:48:26.433Z,85105.03
2023-03-26T05:50:52.910Z,85102.31
2023-03-26T05:53:19.280Z,85113.59
2023-03-26T05:55:45.366Z,85121.38
2023-03-26T05:58:11.495Z,85136.06
2023-03-26T06:00:37.591Z,85144.75
2023-03-26T06:03:03.859Z,85152.59
2023-03-26T06:05:30.057Z,85167.34
2023-03-26T06:07:56.158Z,85176.09
2023-03-26T06:10:22.265Z,85177.56
2023-03-26T06:12:48.375Z,85184.69
2023-03-26T06:15:14.481Z,85163.25
2023-03-26T06:17:40.640Z,85158.69
2023-03-26T06:20:09.166Z,85173.22
2023-03-26T06:22:35.567Z,85169.06
2023-03-26T06:25:01.690Z,85161.63
2023-03-26T06:27:27.794Z,85154.28
2023-03-26T06:29:53.931Z,85149.94
2023-03-26T06:32:20.632Z,85136.50
2023-03-26T06:34:46.928Z,85110.75
2023-03-26T06:37:13.042Z,85092.44
2023-03-26T06:39:39.154Z,85077.88
2023-03-26T06:42:05.244Z,85062.31
2023-03-26T06:44:31.334Z,85022.75
2023-03-26T06:46:57.467Z,84993.31
2023-03-26T06:49:23.602Z,85001.91
2023-03-26T06:51:49.726Z,84957.53
2023-03-26T06:54:15.864Z,84938.50
2023-03-26T06:56:42.000Z,84943.38
2023-03-26T06:59:08.130Z,84927.50
2023-03-26T07:01:34.344Z,84902.31
2023-03-26T07:04:00.514Z,84893.28
2023-03-26T07:06:26.691Z,84879.63
2023-03-26T07:08:52.838Z,84875.94
2023-03-26T07:11:18.955Z,84865.53
2023-03-26T07:13:45.082Z,84871.97
2023-03-26T07:16:11.212Z,84866.66
2023-03-26T07:18:37.339Z,84867.84
2023-03-26T07:21:03.460Z,84869.31
2023-03-26T07:23:29.581Z,84901.66
2023-03-26T07:25:55.775Z,84933.13
2023-03-26T07:28:21.921Z,84944.84
2023-03-26T07:30:48.050Z,84941.97
2023-03-26T07:33:14.191Z,84976.88
2023-03-26T07:35:40.375Z,84973.34
2023-03-26T07:38:06.468Z,84988.91
2023-03-26T07:40:32.560Z,84973.59
2023-03-26T07:42:58.648Z,84977.81
2023-03-26T07:45:24.776Z,84989.13
2023-03-26T07:47:50.901Z,84995.47
2023-03-26T07:50:18.320Z,85001.59
2023-03-26T07:52:45.061Z,84999.72
2023-03-26T07:55:11.472Z,84991.59
2023-03-26T07:57:37.631Z,84985.78
2023-03-26T08:00:03.807Z,84985.72
2023-03-26T08:02:29.946Z,84988.50
2023-03-26T08:04:56.209Z,85002.16
2023-03-26T08:07:22.356Z,84999.34
2023-03-26T08:09:48.444Z,84997.25
2023-03-26T08:12:14.561Z,85000.19
2023-03-26T08:14:40.662Z,84992.84
2023-03-26T08:17:06.881Z,84980.53
2023-03-26T08:19:33.010Z,84977.91
2023-03-26T08:21:59.194Z,84987.97
2023-03-26T08:24:25.318Z,84978.81
2023-03-26T08:26:51.445Z,84967.97
2023-03-26T08:29:17.545Z,84958.25
2023-03-26T08:31:43.734Z,84951.69
2023-03-26T08:34:13.258Z,84938.00
2023-03-26T08:36:39.380Z,84941.81
2023-03-26T08:39:05.482Z,84949.66
2023-03-26T08:41:31.613Z,84947.03
2023-03-26T08:43:57.741Z,84942.16
2023-03-26T08:46:24.977Z,84933.22
2023-03-26T08:48:52.112Z,84937.88
2023-03-26T08:51:18.206Z,84946.72
2023-03-26T08:53:44.321Z,84946.06
2023-03-26T08:56:10.428Z,84950.59
2023-03-26T08:58:36.552Z,84959.81
2023-03-26T09:01:02.644Z,84976.50
2023-03-26T09:03:28.756Z,84984.41
2023-03-26T09:05:54.900Z,84989.94
2023-03-26T09:08:21.001Z,85002.13
2023-03-26T09:10:47.118Z,84998.19
2023-03-26T09:13:13.231Z,84993.06
2023-03-26T09:15:39.402Z,84984.97
2023-03-26T09:18:05.603Z,84993.84
2023-03-26T09:20:31.728Z,84994.75
2023-03-26T09:22:57.833Z,84986.78
2023-03-26T09:25:23.941Z,84969.56
2023-03-26T09:27:50.057Z,84962.34
2023-03-26T09:30:16.144Z,84955.72
2023-03-26T09:32:42.306Z,84955.81
2023-03-26T09:35:08.440Z,84944.88
2023-03-26T09:37:34.520Z,84946.84
2023-03-26T09:40:00.634Z,84950.22
2023-03-26T09:42:26.802Z,84943.47
2023-03-26T09:44:52.905Z,84934.06
2023-03-26T09:47:19.059Z,84931.81
2023-03-26T09:49:45.166Z,84925.22
2023-03-26T09:52:11.258Z,84928.03
2023-03-26T09:54:37.386Z,84922.78
2023-03-26T09:57:03.528Z,84914.09
2023-03-26T09:59:29.647Z,84908.94
2023-03-26T10:01:55.759Z,84907.28
2023-03-26T10:04:21.871Z,84891.72
2023-03-26T10:06:47.983Z,84907.91
2023-03-26T10:09:14.105Z,84923.47
2023-03-26T10:11:40.198Z,84917.06
2023-03-26T10:14:06.282Z,84927.16
2023-03-26T10:16:32.482Z,84935.25
2023-03-26T10:18:58.602Z,84944.19
2023-03-26T10:21:26.173Z,84939.34
2023-03-26T10:23:53.556Z,84950.78
2023-03-26T10:26:19.657Z,84972.03
2023-03-26T10:28:45.787Z,84987.97
2023-03-26T10:31:11.916Z,84991.66
2023-03-26T10:33:38.043Z,84976.41
2023-03-26T10:36:04.199Z,84977.28
2023-03-26T10:38:30.366Z,84968.72
2023-03-26T10:40:56.727Z,84946.22
2023-03-26T10:43:22.988Z,84966.13
2023-03-26T10:45:49.202Z,84984.16
2023-03-26T10:48:15.429Z,84988.34
2023-03-26T10:50:41.577Z,84986.88
2023-03-26T10:53:07.668Z,84981.31
2023-03-26T10:55:33.791Z,84979.31
2023-03-26T10:57:59.926Z,84990.97
2023-03-26T11:00:26.057Z,84991.69
2023-03-26T11:02:52.321Z,85019.91
2023-03-26T11:05:18.731Z,85016.06
2023-03-26T11:07:45.014Z,85011.19
2023-03-26T11:10:11.422Z,85024.50
2023-03-26T11:12:37.727Z,85025.22
2023-03-26T11:15:03.880Z,85036.38
2023-03-26T11:17:39.223Z,85042.72
2023-03-26T11:20:06.095Z,85056.66
2023-03-26T11:22:32.209Z,85068.22
2023-03-26T11:24:58.304Z,85061.31
2023-03-26T11:27:25.861Z,85032.78
2023-03-26T11:29:52.644Z,85030.69
2023-03-26T11:32:18.875Z,85031.34
2023-03-26T11:34:45.424Z,85022.03
2023-03-26T11:37:11.540Z,85004.28
2023-03-26T11:39:37.671Z,84989.25
2023-03-26T11:42:03.917Z,84984.44
2023-03-26T11:44:30.065Z,84986.38
2023-03-26T11:46:56.191Z,84992.72
2023-03-26T11:49:22.514Z,84980.66
2023-03-26T11:51:48.720Z,84972.44
2023-03-26T11:54:15.134Z,84965.50
2023-03-26T11:56:41.595Z,84969.31
2023-03-26T11:59:27.727Z,84979.50
2023-03-26T12:01:54.021Z,84963.16
2023-03-26T12:04:20.346Z,84938.78
2023-03-26T12:06:46.586Z,84932.09
2023-03-26T12:09:12.803Z,84932.19
2023-03-26T12:11:39.015Z,84915.09
2023-03-26T12:14:05.445Z,84917.56
2023-03-26T12:16:31.688Z,84914.31
2023-03-26T12:18:57.882Z,84892.84
2023-03-26T12:21:23.987Z,84892.69
2023-03-26T12:23:50.224Z,84898.28
2023-03-26T12:26:16.424Z,84893.09
2023-03-26T12:28:43.024Z,84891.84
2023-03-26T12:31:09.145Z,84876.97
2023-03-26T12:33:35.449Z,84888.88
2023-03-26T12:36:01.783Z,84902.88
2023-03-26T12:38:28.004Z,84901.41
2023-03-26T12:40:54.362Z,84900.13
2023-03-26T12:44:55.725Z,84887.38
2023-03-26T12:47:57.494Z,84849.81
2023-03-26T12:48:53.272Z,84852.69
2023-03-26T12:51:19.550Z,84844.69
2023-03-26T12:53:45.813Z,84833.94
2023-03-26T12:56:11.959Z,84832.91
2023-03-26T12:58:38.118Z,84815.72
2023-03-26T13:01:04.281Z,84797.59
2023-03-26T13:03:30.467Z,84790.09
2023-03-26T13:05:56.698Z,84773.44
2023-03-26T13:08:22.903Z,84775.47
2023-03-26T13:10:49.103Z,84766.00
2023-03-26T13:13:15.371Z,84752.59
2023-03-26T13:15:41.559Z,84738.44
2023-03-26T13:18:07.812Z,84718.63
2023-03-26T13:20:33.962Z,84707.03
2023-03-26T13:23:00.116Z,84679.56
2023-03-26T13:25:26.351Z,84674.38
2023-03-26T13:27:52.652Z,84662.53
2023-03-26T13:30:18.900Z,84642.84
2023-03-26T13:32:45.151Z,84651.50
2023-03-26T13:35:11.337Z,84650.53
2023-03-26T13:37:37.665Z,84651.00
2023-03-26T13:40:03.811Z,84636.03
2023-03-26T13:42:30.143Z,84626.13
2023-03-26T13:45:05.143Z,84611.03
2023-03-26T13:47:32.243Z,84604.75
2023-03-26T13:49:58.748Z,84591.41
2023-03-26T13:52:25.134Z,84586.56
2023-03-26T13:54:51.295Z,84588.50
2023-03-26T13:57:17.494Z,84591.50
2023-03-26T13:59:43.830Z,84580.00
2023-03-26T14:02:10.039Z,84587.38
2023-03-26T14:04:36.492Z,84602.28
2023-03-26T14:07:02.708Z,84609.28
2023-03-26T14:09:28.847Z,84650.34
2023-03-26T14:11:54.995Z,84671.28
2023-03-26T14:14:21.205Z,84677.38
2023-03-26T14:16:47.340Z,84702.53
2023-03-26T14:19:13.480Z,84713.00
2023-03-26T14:21:39.894Z,84727.16
2023-03-26T14:24:06.173Z,84745.09
2023-03-26T14:26:32.287Z,84758.25
2023-03-26T14:28:58.429Z,84769.28
2023-03-26T14:31:24.603Z,84786.63
2023-03-26T14:33:50.767Z,84796.16
2023-03-26T14:36:16.914Z,84806.34
2023-03-26T14:38:43.043Z,84825.00
2023-03-26T14:41:09.466Z,84840.78
2023-03-26T14:43:35.768Z,84889.47
2023-03-26T14:46:01.933Z,84874.50
2023-03-26T14:48:28.222Z,84887.97
2023-03-26T14:50:54.764Z,84892.56
2023-03-26T14:53:21.503Z,84899.28
2023-03-26T14:55:47.679Z,84914.97
2023-03-26T14:58:13.923Z,84907.06
2023-03-26T15:00:40.105Z,84883.53
2023-03-26T15:03:06.503Z,84879.03
2023-03-26T15:05:32.691Z,84860.84
2023-03-26T15:07:58.878Z,84866.16
2023-03-26T15:10:25.119Z,84860.56
2023-03-26T15:12:51.586Z,84844.34
2023-03-26T15:15:17.749Z,84841.97
2023-03-26T15:17:44.227Z,84853.03
2023-03-26T15:20:10.425Z,84860.56
2023-03-26T15:22:36.571Z,84880.88
2023-03-26T15:25:02.782Z,84886.25
2023-03-26T15:27:28.933Z,84879.44
2023-03-26T15:29:55.137Z,84865.56
2023-03-26T15:32:21.384Z,84862.22
2023-03-26T15:34:47.686Z,84865.47
2023-03-26T15:37:13.851Z,84844.88
2023-03-26T15:39:39.997Z,84842.13
2023-03-26T15:42:06.122Z,84834.97
2023-03-26T15:44:38.081Z,84829.53
2023-03-26T15:47:10.164Z,84824.56
2023-03-26T15:49:36.296Z,84821.25
2023-03-26T15:52:02.436Z,84816.91
2023-03-26T15:54:28.618Z,84818.00
2023-03-26T15:56:55.079Z,84808.44
2023-03-26T15:59:21.287Z,84807.78
2023-03-26T16:01:47.786Z,84798.44
2023-03-26T16:04:14.312Z,84800.78
2023-03-26T16:06:40.523Z,84799.34
2023-03-26T16:09:06.886Z,84788.41
2023-03-26T16:11:33.373Z,84796.59
2023-03-26T16:13:59.496Z,84788.00
2023-03-26T16:16:25.747Z,84800.84
2023-03-26T16:18:51.983Z,84795.13
2023-03-26T16:21:30.864Z,84797.84
2023-03-26T16:23:58.403Z,84799.66
2023-03-26T16:26:24.595Z,84805.25
2023-03-26T16:28:51.033Z,84799.28
2023-03-26T16:31:23.381Z,84807.53
2023-03-26T16:34:03.297Z,84797.94
2023-03-26T16:36:29.613Z,84797.56
2023-03-26T16:38:55.768Z,84790.53
2023-03-26T16:41:21.923Z,84797.91
2023-03-26T16:43:48.105Z,84809.97
2023-03-26T16:46:14.241Z,84810.66
2023-03-26T16:48:40.517Z,84821.22
2023-03-26T16:51:06.742Z,84828.97
2023-03-26T16:53:33.202Z,84833.25
2023-03-26T16:55:59.403Z,84824.88
2023-03-26T16:58:25.805Z,84828.47
2023-03-26T17:00:51.915Z,84824.66
2023-03-26T17:03:18.079Z,84821.59
2023-03-26T17:05:44.312Z,84811.72
2023-03-26T17:08:10.546Z,84808.50
2023-03-26T17:10:36.655Z,84813.72
2023-03-26T17:13:02.921Z,84808.53
2023-03-26T17:15:29.170Z,84816.28
2023-03-26T17:17:55.371Z,84803.47
2023-03-26T17:20:21.645Z,84793.75
2023-03-26T17:22:47.948Z,84788.97
2023-03-26T17:25:14.142Z,84790.72
2023-03-26T17:27:40.277Z,84794.19
2023-03-26T17:30:06.592Z,84787.00
2023-03-26T17:32:32.772Z,84787.44
2023-03-26T17:35:07.710Z,84782.97
2023-03-26T17:37:33.875Z,84773.28
2023-03-26T17:40:00.139Z,84775.84
2023-03-26T17:42:26.275Z,84768.84
2023-03-26T17:44:52.430Z,84764.25
2023-03-26T17:47:18.850Z,84762.63
2023-03-26T17:49:45.038Z,84749.81
2023-03-26T17:52:11.177Z,84749.84
2023-03-26T17:54:37.388Z,84746.38
2023-03-26T17:57:03.610Z,84744.00
2023-03-26T17:59:29.748Z,84745.28
2023-03-26T18:01:55.878Z,84743.91
2023-03-26T18:04:22.096Z,84735.13
2023-03-26T18:06:48.209Z,84735.09
2023-03-26T18:09:14.332Z,84737.78
2023-03-26T18:11:40.478Z,84733.69
2023-03-26T18:14:06.597Z,84729.75
2023-03-26T18:16:32.732Z,84740.88
2023-03-26T18:18:58.973Z,84738.44
2023-03-26T18:21:25.180Z,84738.59
2023-03-26T18:23:51.339Z,84741.69
2023-03-26T18:26:17.488Z,84743.53
2023-03-26T18:28:43.617Z,84742.75
2023-03-26T18:31:10.705Z,84736.44
2023-03-26T18:33:36.905Z,84737.84
2023-03-26T18:36:03.091Z,84743.19
2023-03-26T18:38:36.944Z,84752.19
2023-03-26T18:41:04.810Z,84742.28
2023-03-26T18:43:35.156Z,84740.63
2023-03-26T18:46:01.772Z,84739.41
2023-03-26T18:48:28.602Z,84736.94
2023-03-26T18:50:55.296Z,84752.59
2023-03-26T18:53:22.041Z,84747.28
2023-03-26T18:55:48.267Z,84740.13
2023-03-26T18:58:14.856Z,84751.38
2023-03-26T19:00:41.028Z,84744.81
2023-03-26T19:03:07.228Z,84745.09
2023-03-26T19:05:33.390Z,84736.63
2023-03-26T19:07:59.840Z,84742.28
2023-03-26T19:10:26.296Z,84743.47
2023-03-26T19:12:52.714Z,84736.66
2023-03-26T19:15:19.032Z,84722.25
2023-03-26T19:17:45.174Z,84715.84
2023-03-26T19:20:11.407Z,84709.19
2023-03-26T19:22:37.847Z,84715.41
2023-03-26T19:25:04.291Z,84713.75
2023-03-26T19:27:30.405Z,84715.41
2023-03-26T19:29:56.818Z,84704.81
2023-03-26T19:32:23.036Z,84695.56
2023-03-26T19:34:49.234Z,84696.53
2023-03-26T19:37:15.636Z,84692.75
2023-03-26T19:39:41.768Z,84690.59
2023-03-26T19:42:07.951Z,84686.63
2023-03-26T19:44:34.214Z,84687.09
2023-03-26T19:47:00.499Z,84679.47
2023-03-26T19:49:28.334Z,84673.59
2023-03-26T19:51:54.643Z,84675.38
2023-03-26T19:54:21.079Z,84686.41
2023-03-26T19:56:47.291Z,84685.13
2023-03-26T19:59:13.609Z,84681.13
2023-03-26T20:01:40.102Z,84684.56
2023-03-26T20:04:06.638Z,84681.25
2023-03-26T20:06:42.401Z,84685.97
2023-03-26T20:09:10.422Z,84686.44
2023-03-26T20:11:36.596Z,84686.16
2023-03-26T20:14:02.791Z,84684.88
2023-03-26T20:16:29.004Z,84683.22
2023-03-26T20:18:55.231Z,84678.31
2023-03-26T20:21:21.476Z,84677.47
2023-03-26T20:23:47.925Z,84678.88
2023-03-26T20:26:14.542Z,84675.50
2023-03-26T20:28:47.814Z,84675.53
2023-03-26T20:31:15.214Z,84683.41
2023-03-26T20:33:42.802Z,84672.56
2023-03-26T20:36:09.082Z,84669.69
2023-03-26T20:38:39.346Z,84672.69
2023-03-26T20:41:06.053Z,84672.47
2023-03-26T20:43:32.262Z,84673.63
2023-03-26T20:45:58.723Z,84669.00
2023-03-26T20:48:25.349Z,84673.09
2023-03-26T20:50:51.685Z,84667.03
2023-03-26T20:53:17.848Z,84672.66
2023-03-26T20:55:43.994Z,84672.53
2023-03-26T20:58:10.246Z,84684.69
2023-03-26T21:00:36.496Z,84694.00
2023-03-26T21:03:02.689Z,84694.66
2023-03-26T21:05:28.840Z,84713.72
2023-03-26T21:07:55.037Z,84703.75
2023-03-26T21:10:21.183Z,84710.94
2023-03-26T21:12:47.635Z,84714.00
2023-03-26T21:15:23.025Z,84712.13
2023-03-26T21:17:50.010Z,84713.28
2023-03-26T21:20:16.511Z,84726.31
2023-03-26T21:22:42.739Z,84720.19
2023-03-26T21:25:09.132Z,84724.72
2023-03-26T21:27:35.361Z,84734.69
2023-03-26T21:30:01.484Z,84741.38
2023-03-26T21:32:27.664Z,84737.38
2023-03-26T21:37:23.216Z,84743.28
2023-03-26T21:39:49.579Z,84743.44
2023-03-26T21:42:16.162Z,84750.25
2023-03-26T21:44:42.436Z,84747.84
2023-03-26T21:47:09.899Z,84747.13
2023-03-26T21:49:36.193Z,84748.84
2023-03-26T21:52:02.525Z,84752.44
2023-03-26T21:54:28.639Z,84749.28
2023-03-26T21:56:55.079Z,84760.69
2023-03-26T21:59:21.274Z,84755.78
2023-03-26T22:01:47.474Z,84751.75
2023-03-26T22:04:13.689Z,84760.94
2023-03-26T22:06:39.919Z,84758.25
2023-03-26T22:09:06.386Z,84762.81
2023-03-26T22:11:32.830Z,84764.59
2023-03-26T22:13:59.045Z,84761.72
2023-03-26T22:16:25.493Z,84752.91
2023-03-26T22:18:51.992Z,84756.28
2023-03-26T22:21:18.147Z,84761.03
2023-03-26T22:23:44.396Z,84768.91
2023-03-26T22:26:10.635Z,84777.72
2023-03-26T22:28:36.934Z,84770.16
2023-03-26T22:31:03.388Z,84769.97
2023-03-26T22:33:29.533Z,84776.22
2023-03-26T22:35:55.705Z,84777.59
2023-03-26T22:38:21.947Z,84775.78
2023-03-26T22:40:48.084Z,84778.22
2023-03-26T22:43:14.222Z,84777.09
2023-03-26T22:45:40.343Z,84764.72
2023-03-26T22:48:06.519Z,84769.00
2023-03-26T22:50:32.826Z,84775.41
2023-03-26T22:52:59.148Z,84782.13
2023-03-26T22:55:28.325Z,84772.13
2023-03-26T22:57:55.820Z,84779.13
2023-03-26T23:00:21.968Z,84783.22
2023-03-26T23:02:48.291Z,84784.72
2023-03-26T23:05:14.510Z,84794.06
2023-03-26T23:07:40.664Z,84800.59
2023-03-26T23:10:06.954Z,84792.72
2023-03-26T23:12:33.106Z,84784.91
2023-03-26T23:14:59.521Z,84797.59
2023-03-26T23:17:25.790Z,84798.88
2023-03-26T23:19:52.239Z,84794.94
2023-03-26T23:22:18.374Z,84786.69
2023-03-26T23:24:44.603Z,84780.06
2023-03-26T23:27:10.841Z,84785.38
2023-03-26T23:29:37.000Z,84786.53
2023-03-26T23:32:03.229Z,84801.00
2023-03-26T23:34:51.831Z,84804.53
2023-03-26T23:37:18.632Z,84812.16
2023-03-26T23:39:44.771Z,84804.84
2023-03-26T23:42:10.905Z,84802.84
2023-03-26T23:44:37.152Z,84808.16
2023-03-26T23:47:03.298Z,84800.44
2023-03-26T23:49:29.430Z,84807.50
2023-03-26T23:51:55.568Z,84813.13
2023-03-26T23:54:21.704Z,84813.31
2023-03-26T23:56:47.799Z,84818.78
2023-03-26T23:59:13.936Z,84834.72
